Time;durP1;ratioP1;P1;durP2;ratioP2;P2;SDS_P1;SDS_P2;PMS_P1;PMS_P2;Temp;Humidity;BMP_temperature;BMP_pressure;BME280_temperature;BME280_humidity;BME280_pressure;Samples;Min_cycle;Max_cycle;Signal;HPM_P1;HPM_P2
2021/10/16 00:00:36;;;;;;;4.23;1.90;;;13.30;99.90;;;;;;4988943;28;20571;-88
2021/10/16 00:03:08;;;;;;;4.07;1.57;;;13.30;99.90;;;;;;4985286;28;20211;-89
2021/10/16 00:05:39;;;;;;;5.03;1.90;;;13.30;99.90;;;;;;4978424;28;20218;-88
2021/10/16 00:08:11;;;;;;;4.70;1.70;;;13.30;99.90;;;;;;4979071;28;20215;-87
2021/10/16 00:10:43;;;;;;;3.50;1.90;;;13.30;99.90;;;;;;4979428;28;20660;-87
2021/10/16 00:13:15;;;;;;;5.43;1.67;;;13.30;99.90;;;;;;4985469;28;20281;-87
2021/10/16 00:15:47;;;;;;;2.97;1.70;;;13.30;99.90;;;;;;4997672;28;20614;-87
2021/10/16 00:18:18;;;;;;;4.43;1.70;;;13.30;99.90;;;;;;4998570;28;20221;-88
2021/10/16 00:20:55;;;;;;;5.77;2.00;;;13.20;99.90;;;;;;5006659;28;20591;-88
2021/10/16 00:28:55;;;;;;;4.10;2.00;;;13.20;99.90;;;;;;5077719;23;20293;-89
2021/10/16 00:31:27;;;;;;;5.73;1.80;;;13.20;99.90;;;;;;5012372;28;20296;-89
2021/10/16 00:33:59;;;;;;;4.33;1.60;;;13.20;99.90;;;;;;5004372;28;20266;-88
2021/10/16 00:36:30;;;;;;;5.20;1.50;;;13.10;99.90;;;;;;5000651;28;20217;-89
2021/10/16 00:39:01;;;;;;;8.83;2.17;;;13.10;99.90;;;;;;5003199;28;20256;-89
2021/10/16 00:41:33;;;;;;;3.47;1.97;;;13.10;99.90;;;;;;4997749;28;20329;-88
2021/10/16 00:44:18;;;;;;;5.40;2.37;;;13.10;99.90;;;;;;5001630;28;20207;-89
2021/10/16 00:46:52;;;;;;;7.60;2.20;;;13.00;99.90;;;;;;4998181;28;20663;-88
2021/10/16 00:49:25;;;;;;;7.90;2.27;;;13.00;99.90;;;;;;4998057;28;20206;-86
2021/10/16 00:51:58;;;;;;;4.40;2.00;;;13.00;99.90;;;;;;5003821;28;20276;-89
2021/10/16 00:54:29;;;;;;;4.00;1.90;;;13.00;99.90;;;;;;5004043;28;20202;-89
2021/10/16 00:57:02;;;;;;;5.83;2.10;;;13.00;99.90;;;;;;5011528;28;20206;-87
2021/10/16 00:59:36;;;;;;;5.27;2.03;;;13.10;99.90;;;;;;5002547;28;20230;-86
2021/10/16 01:02:08;;;;;;;8.10;1.90;;;13.00;99.90;;;;;;4982877;28;20211;-87
2021/10/16 01:04:40;;;;;;;7.70;2.13;;;12.90;99.90;;;;;;4982465;28;20294;-87
2021/10/16 01:07:11;;;;;;;5.07;1.90;;;13.00;99.90;;;;;;4963314;28;20254;-86
2021/10/16 01:09:44;;;;;;;6.17;1.90;;;13.00;99.90;;;;;;4976950;28;20257;-86
2021/10/16 01:12:17;;;;;;;3.47;2.07;;;13.10;99.90;;;;;;4976008;28;20234;-86
2021/10/16 01:14:57;;;;;;;3.93;1.87;;;13.10;99.90;;;;;;4977743;28;20277;-91
2021/10/16 01:17:28;;;;;;;6.93;2.10;;;13.10;99.90;;;;;;4985987;28;20675;-86
2021/10/16 01:20:07;;;;;;;4.80;2.10;;;13.00;99.90;;;;;;4984310;28;20241;-88
2021/10/16 01:22:49;;;;;;;6.23;2.57;;;13.00;99.90;;;;;;4975313;28;20230;-87
2021/10/16 01:25:23;;;;;;;7.77;2.30;;;13.00;99.90;;;;;;4985318;28;20207;-90
2021/10/16 01:27:57;;;;;;;6.17;2.10;;;13.00;99.90;;;;;;4643815;28;10000593;-89
2021/10/16 01:30:29;;;;;;;5.13;2.23;;;12.90;99.90;;;;;;4970563;28;20268;-89
2021/10/16 01:33:01;;;;;;;6.10;2.27;;;12.90;99.90;;;;;;4976995;28;20242;-89
2021/10/16 01:35:33;;;;;;;4.13;2.07;;;12.90;99.90;;;;;;4976691;28;20249;-89
2021/10/16 01:38:09;;;;;;;9.20;2.33;;;12.90;99.90;;;;;;4982924;28;20614;-90
2021/10/16 01:40:41;;;;;;;4.17;1.93;;;12.80;99.90;;;;;;4991046;28;20234;-90
2021/10/16 01:43:13;;;;;;;3.50;2.17;;;12.90;99.90;;;;;;4990393;28;20555;-91
2021/10/16 01:45:45;;;;;;;4.40;2.43;;;12.80;99.90;;;;;;4990649;28;20201;-90
2021/10/16 01:48:16;;;;;;;4.93;2.30;;;12.80;99.90;;;;;;4985994;28;20206;-89
2021/10/16 01:50:48;;;;;;;7.37;2.40;;;12.80;99.90;;;;;;4980421;28;20262;-90
2021/10/16 01:53:23;;;;;;;4.97;2.43;;;12.80;99.90;;;;;;4991439;28;20230;-89
2021/10/16 01:55:54;;;;;;;6.00;2.50;;;12.80;99.90;;;;;;4972014;28;20211;-89
2021/10/16 01:58:26;;;;;;;6.40;2.53;;;12.90;99.90;;;;;;4976679;28;20213;-89
2021/10/16 02:00:58;;;;;;;6.97;3.67;;;12.80;99.90;;;;;;5009765;28;20218;-91
2021/10/16 02:03:29;;;;;;;8.87;3.50;;;12.80;99.90;;;;;;4995113;28;20195;-90
2021/10/16 02:06:01;;;;;;;7.40;3.27;;;13.00;99.90;;;;;;4996373;28;20227;-90
2021/10/16 02:22:02;;;;;;;4.60;3.17;;;13.10;99.90;;;;;;4991862;28;20225;-92
2021/10/16 02:24:34;;;;;;;6.30;3.20;;;13.10;99.90;;;;;;4989672;28;20285;-89
2021/10/16 02:27:05;;;;;;;8.00;3.50;;;13.10;99.90;;;;;;4993329;28;20214;-90
2021/10/16 02:29:38;;;;;;;6.30;2.87;;;13.10;99.90;;;;;;4993033;28;20199;-91
2021/10/16 02:32:11;;;;;;;6.23;2.80;;;13.00;99.90;;;;;;4988598;28;20683;-93
2021/10/16 02:34:42;;;;;;;10.07;3.03;;;13.00;99.90;;;;;;4991327;28;20211;-93
2021/10/16 02:37:16;;;;;;;5.80;3.07;;;13.00;99.90;;;;;;4990545;28;20211;-93
2021/10/16 02:39:49;;;;;;;8.27;3.23;;;13.10;99.90;;;;;;4983682;28;20235;-90
2021/10/16 02:42:25;;;;;;;5.67;2.83;;;13.00;99.90;;;;;;4990979;28;20246;-93
2021/10/16 03:38:35;;;;;;;7.50;3.20;;;12.50;99.90;;;;;;5011720;28;20237;-89
2021/10/16 03:44:06;;;;;;;4.03;2.30;;;12.30;99.90;;;;;;5016136;28;20209;-89
2021/10/16 03:46:41;;;;;;;8.57;3.10;;;12.30;99.90;;;;;;5015350;28;20214;-88
2021/10/16 03:49:20;;;;;;;5.13;2.87;;;12.30;99.90;;;;;;5015427;28;20219;-88
2021/10/16 03:51:54;;;;;;;6.77;3.20;;;12.30;99.90;;;;;;5014052;28;20217;-87
2021/10/16 03:54:32;;;;;;;5.50;3.27;;;12.30;99.90;;;;;;5016115;28;20223;-87
2021/10/16 03:57:04;;;;;;;6.47;3.50;;;12.20;99.90;;;;;;5014186;28;20252;-87
2021/10/16 04:05:18;;;;;;;7.97;3.73;;;12.10;99.90;;;;;;4997748;28;20206;-89
2021/10/16 04:10:52;;;;;;;11.60;4.10;;;12.10;99.90;;;;;;4993803;28;20203;-86
2021/10/16 04:13:24;;;;;;;9.50;4.30;;;12.10;99.90;;;;;;5008702;23;20269;-88
2021/10/16 04:15:56;;;;;;;8.70;3.67;;;12.10;99.90;;;;;;4997569;28;20195;-88
2021/10/16 04:21:03;;;;;;;11.67;3.40;;;12.10;99.90;;;;;;5107615;23;20234;-90
2021/10/16 04:23:36;;;;;;;10.13;3.63;;;12.10;99.90;;;;;;5013811;28;20208;-87
2021/10/16 04:26:10;;;;;;;9.03;3.63;;;12.10;99.90;;;;;;5009959;28;20207;-88
2021/10/16 04:28:42;;;;;;;7.90;3.30;;;12.10;99.90;;;;;;5019121;28;20232;-88
2021/10/16 04:31:13;;;;;;;8.23;3.50;;;12.00;99.90;;;;;;5004065;28;20289;-88
2021/10/16 04:41:42;;;;;;;8.83;3.53;;;12.00;99.90;;;;;;4998369;28;20234;-88
2021/10/16 04:44:14;;;;;;;10.23;3.57;;;12.00;99.90;;;;;;5010686;28;20217;-87
2021/10/16 04:46:45;;;;;;;9.03;3.13;;;12.00;99.90;;;;;;5015805;28;20233;-87
2021/10/16 04:49:16;;;;;;;11.20;3.53;;;12.00;99.90;;;;;;4996639;28;20199;-87
2021/10/16 04:51:48;;;;;;;6.80;3.30;;;12.00;99.90;;;;;;4992583;28;20219;-88
2021/10/16 04:54:19;;;;;;;6.97;2.80;;;12.00;99.90;;;;;;4979491;28;20281;-87
2021/10/16 04:56:55;;;;;;;8.57;3.50;;;11.90;99.90;;;;;;4984991;28;20213;-87
2021/10/16 04:59:27;;;;;;;6.97;3.17;;;12.00;99.90;;;;;;4990039;28;20297;-86
2021/10/16 05:01:59;;;;;;;8.33;3.47;;;11.90;99.90;;;;;;4989412;28;20576;-88
2021/10/16 05:04:33;;;;;;;9.13;3.40;;;11.90;99.90;;;;;;4958641;28;20520;-88
2021/10/16 05:07:05;;;;;;;6.43;3.60;;;11.90;99.90;;;;;;4958298;28;20254;-88
2021/10/16 05:09:37;;;;;;;9.43;3.80;;;11.90;99.90;;;;;;4978101;28;20194;-88
2021/10/16 05:12:14;;;;;;;6.90;3.37;;;11.90;99.90;;;;;;4998878;28;20202;-88
2021/10/16 05:14:46;;;;;;;6.03;3.10;;;12.00;99.90;;;;;;4996981;28;20206;-89
2021/10/16 05:17:17;;;;;;;7.80;3.30;;;12.00;99.90;;;;;;4987868;28;20233;-88
2021/10/16 05:19:49;;;;;;;6.07;3.70;;;11.90;99.90;;;;;;4971522;28;20206;-88
2021/10/16 05:22:21;;;;;;;5.40;3.40;;;11.90;99.90;;;;;;4977311;28;20227;-88
2021/10/16 05:24:52;;;;;;;6.23;3.47;;;11.90;99.90;;;;;;4974818;28;20238;-90
2021/10/16 05:27:25;;;;;;;6.47;4.13;;;11.90;99.90;;;;;;4980121;28;20234;-88
2021/10/16 05:29:57;;;;;;;10.37;3.90;;;11.90;99.90;;;;;;4977660;28;20683;-89
2021/10/16 05:35:02;;;;;;;7.77;3.70;;;12.00;99.90;;;;;;4994355;28;20221;-88
2021/10/16 05:37:41;;;;;;;7.83;3.63;;;12.00;99.90;;;;;;5012377;23;20249;-89
2021/10/16 05:40:14;;;;;;;6.20;3.10;;;12.00;99.90;;;;;;4964036;28;20243;-88
2021/10/16 05:42:49;;;;;;;7.93;3.23;;;12.00;99.90;;;;;;4964656;28;20207;-89
2021/10/16 05:45:22;;;;;;;6.07;3.47;;;12.00;99.90;;;;;;4962029;28;20214;-90
2021/10/16 05:47:54;;;;;;;5.87;2.80;;;12.00;99.90;;;;;;4963509;28;20446;-88
2021/10/16 05:50:26;;;;;;;4.60;2.93;;;12.00;99.90;;;;;;4961924;28;20275;-89
2021/10/16 05:52:59;;;;;;;7.00;2.83;;;12.00;99.90;;;;;;4968315;28;20211;-89
2021/10/16 05:55:31;;;;;;;8.23;3.17;;;12.00;99.90;;;;;;4966265;28;20215;-88
2021/10/16 05:58:07;;;;;;;5.37;2.40;;;12.10;99.90;;;;;;4962384;28;20224;-88
2021/10/16 06:00:39;;;;;;;7.30;2.47;;;12.20;99.90;;;;;;4960296;28;20227;-88
2021/10/16 06:03:12;;;;;;;5.00;2.40;;;12.20;99.90;;;;;;4959642;28;20218;-88
2021/10/16 06:05:44;;;;;;;5.47;2.40;;;12.30;99.90;;;;;;4958015;28;20222;-88
2021/10/16 06:08:16;;;;;;;7.50;3.53;;;12.30;99.90;;;;;;4974015;28;20207;-88
2021/10/16 06:10:50;;;;;;;4.70;2.37;;;12.30;99.90;;;;;;4977806;28;20261;-88
2021/10/16 06:13:23;;;;;;;3.23;2.20;;;12.30;99.90;;;;;;4978348;28;20302;-88
2021/10/16 06:15:55;;;;;;;8.23;3.10;;;12.30;99.90;;;;;;4978594;28;20235;-88
2021/10/16 06:18:29;;;;;;;5.43;2.60;;;12.20;99.90;;;;;;4989169;28;20203;-88
2021/10/16 06:21:03;;;;;;;9.43;2.70;;;12.30;99.90;;;;;;4988862;28;20237;-88
2021/10/16 06:23:43;;;;;;;6.83;2.30;;;12.30;99.90;;;;;;4982442;28;20222;-88
2021/10/16 06:26:14;;;;;;;4.23;2.40;;;12.30;99.90;;;;;;4979469;28;20262;-87
2021/10/16 06:28:50;;;;;;;6.73;2.90;;;12.40;99.90;;;;;;4981152;28;20553;-89
2021/10/16 06:31:23;;;;;;;4.13;2.23;;;12.30;99.90;;;;;;4982202;28;20202;-88
2021/10/16 06:33:57;;;;;;;5.30;2.10;;;12.30;99.90;;;;;;4992291;28;20207;-88
2021/10/16 06:36:28;;;;;;;5.70;2.27;;;12.30;99.90;;;;;;4997218;28;20202;-87
2021/10/16 06:38:59;;;;;;;4.87;2.23;;;12.30;99.90;;;;;;4997785;28;20246;-88
2021/10/16 06:41:31;;;;;;;2.67;2.20;;;12.40;99.90;;;;;;4997438;28;20219;-87
2021/10/16 06:44:10;;;;;;;3.97;2.43;;;12.30;99.90;;;;;;4992845;28;20219;-88
2021/10/16 06:46:42;;;;;;;5.87;2.30;;;12.40;99.90;;;;;;4982450;28;20215;-88
2021/10/16 06:49:13;;;;;;;7.53;2.80;;;12.40;99.90;;;;;;4972963;28;20542;-89
2021/10/16 06:51:45;;;;;;;5.17;2.60;;;12.30;99.90;;;;;;4949864;28;20216;-88
2021/10/16 06:54:17;;;;;;;4.13;2.43;;;12.30;99.90;;;;;;4966730;28;20218;-89
2021/10/16 06:56:48;;;;;;;5.03;2.40;;;12.30;99.90;;;;;;4959579;28;20212;-88
2021/10/16 06:59:22;;;;;;;5.97;2.83;;;12.30;99.90;;;;;;4958944;28;20256;-87
2021/10/16 07:01:53;;;;;;;6.33;3.00;;;12.20;99.90;;;;;;4961342;29;20224;-87
2021/10/16 07:04:25;;;;;;;8.23;2.87;;;12.20;99.90;;;;;;4961398;28;20256;-89
2021/10/16 07:06:57;;;;;;;4.17;2.53;;;12.10;99.90;;;;;;4960992;28;20209;-88
2021/10/16 07:09:31;;;;;;;5.90;2.90;;;12.10;99.90;;;;;;4950752;29;20205;-87
2021/10/16 07:12:02;;;;;;;3.97;2.50;;;12.00;99.90;;;;;;4947085;29;20212;-87
2021/10/16 07:14:36;;;;;;;6.33;2.93;;;12.00;99.90;;;;;;4962002;28;20673;-88
2021/10/16 07:17:07;;;;;;;5.53;2.47;;;12.00;99.90;;;;;;4964466;28;20207;-88
2021/10/16 07:19:39;;;;;;;3.57;2.30;;;11.90;99.90;;;;;;4964934;28;20553;-88
2021/10/16 07:22:11;;;;;;;4.77;2.67;;;11.90;99.90;;;;;;4964223;28;20236;-87
2021/10/16 07:24:42;;;;;;;5.07;2.70;;;11.90;99.90;;;;;;4964419;28;20581;-88
2021/10/16 07:27:14;;;;;;;5.93;2.70;;;11.80;99.90;;;;;;4955251;28;20220;-88
2021/10/16 07:29:48;;;;;;;3.73;2.57;;;11.80;99.90;;;;;;4943984;29;20243;-88
2021/10/16 07:32:21;;;;;;;5.53;2.63;;;11.80;99.90;;;;;;4944593;29;20215;-89
2021/10/16 07:34:55;;;;;;;4.43;2.80;;;11.80;99.90;;;;;;4943285;29;20264;-89
2021/10/16 07:37:26;;;;;;;5.13;2.40;;;11.90;99.90;;;;;;4943673;29;20287;-88
2021/10/16 07:39:57;;;;;;;5.57;2.37;;;11.90;99.90;;;;;;4943727;29;20235;-89
2021/10/16 07:42:29;;;;;;;2.60;2.20;;;11.90;99.90;;;;;;4943756;29;20244;-90
2021/10/16 07:45:02;;;;;;;5.70;2.60;;;11.90;99.90;;;;;;4942645;29;20604;-90
2021/10/16 07:47:33;;;;;;;5.03;2.30;;;11.90;99.90;;;;;;4942772;29;20208;-89
2021/10/16 07:50:05;;;;;;;5.30;2.70;;;11.90;99.90;;;;;;4942804;29;20214;-88
2021/10/16 07:52:37;;;;;;;3.07;2.40;;;11.90;99.90;;;;;;4941608;29;20243;-88
2021/10/16 07:55:09;;;;;;;3.53;2.20;;;11.90;99.90;;;;;;4940137;29;20205;-88
2021/10/16 07:57:40;;;;;;;2.70;2.10;;;11.90;99.90;;;;;;4941979;29;20605;-87
2021/10/16 08:00:15;;;;;;;3.10;2.00;;;11.90;99.90;;;;;;4942399;29;20208;-86
2021/10/16 08:02:46;;;;;;;5.07;2.30;;;11.90;99.90;;;;;;4941793;29;20247;-87
2021/10/16 08:05:17;;;;;;;5.50;2.30;;;11.90;99.90;;;;;;4940170;29;20216;-87
2021/10/16 08:07:49;;;;;;;6.90;3.20;;;11.90;99.90;;;;;;4941651;29;20208;-87
2021/10/16 08:10:21;;;;;;;4.47;2.20;;;11.90;99.90;;;;;;4941412;29;20236;-86
2021/10/16 08:12:52;;;;;;;7.00;2.00;;;11.90;99.90;;;;;;4951376;28;20221;-88
2021/10/16 08:15:25;;;;;;;4.80;2.17;;;11.90;99.90;;;;;;4981323;28;20218;-87
2021/10/16 08:17:56;;;;;;;5.87;2.10;;;11.90;99.90;;;;;;4987928;28;20214;-87
2021/10/16 08:20:28;;;;;;;7.07;2.73;;;12.00;99.90;;;;;;4980144;28;20263;-86
2021/10/16 08:23:03;;;;;;;4.47;2.13;;;12.00;99.90;;;;;;4979733;28;20630;-88
2021/10/16 08:25:34;;;;;;;3.43;1.73;;;12.10;99.90;;;;;;4979524;28;20210;-87
2021/10/16 08:28:10;;;;;;;5.67;1.73;;;12.20;99.90;;;;;;4964571;28;20310;-87
2021/10/16 08:30:50;;;;;;;7.70;2.33;;;12.20;99.90;;;;;;4960534;28;20207;-89
2021/10/16 08:33:21;;;;;;;3.77;1.97;;;12.20;99.90;;;;;;4960391;28;20215;-87
2021/10/16 08:35:53;;;;;;;3.40;2.10;;;12.10;99.90;;;;;;4959995;28;20215;-88
2021/10/16 08:38:25;;;;;;;3.43;1.80;;;12.10;99.90;;;;;;4961011;28;20645;-88
2021/10/16 08:40:56;;;;;;;3.43;1.80;;;12.00;99.90;;;;;;4960795;28;20310;-89
2021/10/16 08:43:28;;;;;;;3.43;1.90;;;11.90;99.90;;;;;;4960833;28;20645;-88
2021/10/16 08:46:03;;;;;;;3.97;2.13;;;11.90;99.90;;;;;;4961810;28;20217;-88
2021/10/16 08:48:35;;;;;;;5.63;2.00;;;11.70;99.90;;;;;;4980041;28;20243;-89
2021/10/16 08:51:06;;;;;;;4.13;2.20;;;11.70;99.90;;;;;;4976357;28;20208;-89
2021/10/16 08:53:38;;;;;;;3.97;1.80;;;11.70;99.90;;;;;;4951046;28;20208;-89
2021/10/16 08:56:10;;;;;;;8.43;2.27;;;11.70;99.90;;;;;;4943643;29;20243;-89
2021/10/16 08:58:41;;;;;;;3.80;2.20;;;11.60;99.90;;;;;;4960107;29;20267;-88
2021/10/16 09:01:15;;;;;;;5.43;2.33;;;11.70;99.90;;;;;;4959168;29;20211;-87
2021/10/16 09:03:50;;;;;;;4.73;1.97;;;11.70;99.90;;;;;;4960150;28;20266;-87
2021/10/16 09:06:25;;;;;;;4.80;2.00;;;11.70;99.90;;;;;;4958840;28;20206;-87
2021/10/16 09:08:59;;;;;;;4.80;2.07;;;11.70;99.90;;;;;;4961959;28;20238;-88
2021/10/16 09:11:35;;;;;;;5.37;2.27;;;11.70;99.90;;;;;;4958804;28;20218;-88
2021/10/16 09:14:07;;;;;;;4.27;1.57;;;11.70;99.90;;;;;;4948098;28;20207;-87
2021/10/16 09:16:43;;;;;;;3.73;1.53;;;11.70;99.90;;;;;;4938982;29;20681;-87
2021/10/16 09:19:17;;;;;;;2.97;1.70;;;11.70;99.90;;;;;;4946797;28;20234;-88
2021/10/16 09:21:51;;;;;;;3.23;1.80;;;11.80;99.90;;;;;;4958545;28;20219;-87
2021/10/16 09:24:24;;;;;;;5.20;2.10;;;11.80;99.90;;;;;;4958851;28;20243;-87
2021/10/16 09:26:58;;;;;;;5.90;2.10;;;11.70;99.90;;;;;;4960696;28;20216;-88
2021/10/16 09:29:32;;;;;;;4.03;1.70;;;11.70;99.90;;;;;;4958300;28;20215;-89
2021/10/16 09:32:09;;;;;;;2.70;1.40;;;11.70;99.90;;;;;;4958372;28;20645;-88
2021/10/16 09:34:42;;;;;;;5.23;2.03;;;11.70;99.90;;;;;;4959153;28;20275;-88
2021/10/16 09:37:15;;;;;;;2.83;1.63;;;11.70;99.90;;;;;;4957231;29;20660;-88
2021/10/16 09:39:58;;;;;;;2.83;1.50;;;11.60;99.90;;;;;;4958488;28;20266;-88
2021/10/16 09:42:42;;;;;;;4.37;1.63;;;11.60;99.90;;;;;;4957281;29;20232;-88
2021/10/16 09:45:15;;;;;;;4.87;1.60;;;11.60;99.90;;;;;;4957823;28;20220;-88
2021/10/16 09:47:57;;;;;;;2.30;1.43;;;11.60;99.90;;;;;;4960659;28;20215;-88
2021/10/16 09:50:29;;;;;;;5.23;1.50;;;11.60;99.90;;;;;;4959328;28;20545;-88
2021/10/16 09:53:01;;;;;;;5.40;1.70;;;11.70;99.90;;;;;;4959247;28;20241;-88
2021/10/16 09:55:33;;;;;;;4.40;1.70;;;11.70;99.90;;;;;;4965125;28;20215;-89
2021/10/16 09:58:05;;;;;;;2.77;1.77;;;11.70;99.90;;;;;;4959241;28;20218;-87
2021/10/16 10:00:39;;;;;;;6.13;1.67;;;11.70;99.90;;;;;;4959106;28;20227;-87
2021/10/16 10:03:15;;;;;;;4.20;1.73;;;11.70;99.90;;;;;;4958646;28;20704;-87
2021/10/16 10:05:48;;;;;;;5.13;2.00;;;11.70;99.90;;;;;;4957777;28;20286;-88
2021/10/16 10:08:21;;;;;;;5.90;1.50;;;11.60;99.90;;;;;;4958121;28;20265;-88
2021/10/16 10:10:52;;;;;;;4.37;1.63;;;11.60;99.90;;;;;;4958024;28;20239;-87
2021/10/16 10:13:26;;;;;;;3.17;1.67;;;11.60;99.90;;;;;;4957865;28;20238;-87
2021/10/16 10:15:57;;;;;;;4.20;1.43;;;11.60;99.90;;;;;;4958132;28;20208;-88
2021/10/16 10:21:19;;;;;;;3.03;1.80;;;11.60;99.90;;;;;;4971844;28;20196;-87
2021/10/16 10:23:58;;;;;;;6.20;1.70;;;11.60;99.90;;;;;;4975463;28;20227;-87
2021/10/16 10:26:31;;;;;;;4.20;2.23;;;11.50;99.90;;;;;;4978570;28;20203;-87
2021/10/16 10:29:05;;;;;;;6.03;2.57;;;11.50;99.90;;;;;;4991207;28;20570;-87
2021/10/16 10:31:56;;;;;;;7.10;2.67;;;11.50;99.90;;;;;;4985674;28;20580;-87
2021/10/16 10:34:42;;;;;;;4.87;2.73;;;11.50;99.90;;;;;;4984032;28;20206;-87
2021/10/16 10:37:15;;;;;;;6.27;2.07;;;11.50;99.90;;;;;;4980399;28;20221;-88
2021/10/16 10:39:57;;;;;;;4.73;2.00;;;11.50;99.90;;;;;;4981220;28;20230;-88
2021/10/16 10:42:55;;;;;;;4.10;1.53;;;11.50;99.90;;;;;;4980716;28;20210;-88
2021/10/16 10:45:51;;;;;;;3.37;1.57;;;11.40;99.90;;;;;;4975349;28;20668;-88
2021/10/16 10:48:22;;;;;;;3.17;1.80;;;11.40;99.90;;;;;;4952582;28;20220;-88
2021/10/16 10:51:04;;;;;;;2.67;1.70;;;11.40;99.90;;;;;;4961328;28;20243;-89
2021/10/16 10:53:42;;;;;;;5.50;1.80;;;11.30;99.90;;;;;;4962079;28;20271;-88
2021/10/16 10:56:22;;;;;;;3.70;1.60;;;11.30;99.90;;;;;;4961320;28;20641;-89
2021/10/16 10:59:13;;;;;;;6.47;1.80;;;11.30;99.90;;;;;;4970455;28;20203;-89
2021/10/16 11:02:06;;;;;;;1.70;1.50;;;11.30;99.90;;;;;;4976536;28;20243;-87
2021/10/16 11:04:54;;;;;;;5.10;2.00;;;11.30;99.90;;;;;;4994070;23;20255;-85
2021/10/16 11:07:38;;;;;;;5.70;1.70;;;11.30;99.90;;;;;;4947403;29;20216;-87
2021/10/16 11:10:14;;;;;;;2.70;1.60;;;11.40;99.90;;;;;;4942060;29;20209;-87
2021/10/16 11:12:47;;;;;;;1.90;1.43;;;11.40;99.90;;;;;;4941264;29;20263;-88
2021/10/16 11:15:22;;;;;;;2.40;1.57;;;11.40;99.90;;;;;;4941104;29;20236;-88
2021/10/16 11:17:53;;;;;;;6.40;1.70;;;11.40;99.90;;;;;;4942738;29;20250;-88
2021/10/16 11:20:33;;;;;;;4.80;1.73;;;11.40;99.90;;;;;;4942024;29;20258;-86
2021/10/16 11:23:07;;;;;;;3.27;1.40;;;11.50;99.90;;;;;;4941152;29;20208;-88
2021/10/16 11:25:38;;;;;;;3.57;1.90;;;11.40;99.90;;;;;;4940956;29;20212;-88
2021/10/16 11:28:12;;;;;;;3.97;1.60;;;11.50;99.90;;;;;;4941229;28;20243;-88
2021/10/16 11:30:45;;;;;;;5.73;1.70;;;11.50;99.90;;;;;;4941076;29;20689;-88
2021/10/16 11:33:18;;;;;;;3.93;1.90;;;11.40;99.90;;;;;;4941074;29;20303;-88
2021/10/16 11:35:52;;;;;;;3.67;1.60;;;11.50;99.90;;;;;;4940515;29;20220;-88
2021/10/16 11:38:27;;;;;;;2.47;1.40;;;11.50;99.90;;;;;;4940995;29;20236;-87
2021/10/16 11:40:59;;;;;;;4.90;1.60;;;11.50;99.90;;;;;;4940268;29;20223;-88
2021/10/16 11:43:37;;;;;;;5.87;1.70;;;11.50;99.90;;;;;;4941523;29;20319;-88
2021/10/16 11:46:17;;;;;;;5.93;1.77;;;11.60;99.90;;;;;;4940365;29;20592;-89
2021/10/16 11:48:50;;;;;;;5.30;1.50;;;11.60;99.90;;;;;;4941154;29;20247;-87
2021/10/16 11:51:21;;;;;;;3.93;1.67;;;11.70;99.90;;;;;;4940807;29;20673;-88
2021/10/16 11:53:55;;;;;;;3.93;1.83;;;11.70;99.90;;;;;;4940847;29;20228;-88
2021/10/16 11:56:28;;;;;;;3.83;1.70;;;11.70;99.90;;;;;;4940337;29;20232;-88
2021/10/16 11:59:00;;;;;;;2.70;1.53;;;11.80;99.90;;;;;;4941012;29;20208;-88
2021/10/16 12:01:32;;;;;;;3.93;2.03;;;11.80;99.90;;;;;;4940986;29;20223;-87
2021/10/16 12:04:03;;;;;;;3.50;1.80;;;11.80;99.90;;;;;;4940441;29;20239;-88
2021/10/16 12:06:34;;;;;;;3.40;1.63;;;11.80;99.90;;;;;;4939659;29;20223;-87
2021/10/16 12:09:12;;;;;;;2.23;1.50;;;11.80;99.90;;;;;;4940876;29;20215;-87
2021/10/16 12:11:43;;;;;;;3.93;1.70;;;11.80;99.90;;;;;;4941383;29;20914;-86
2021/10/16 12:14:22;;;;;;;7.00;1.80;;;11.80;99.90;;;;;;4940759;29;20213;-87
2021/10/16 12:16:54;;;;;;;3.53;1.40;;;11.80;99.90;;;;;;4939737;29;20226;-88
2021/10/16 12:19:25;;;;;;;4.33;1.90;;;11.80;99.90;;;;;;4940452;29;20624;-88
2021/10/16 12:22:07;;;;;;;2.43;1.43;;;11.80;99.90;;;;;;4938720;29;20208;-88
2021/10/16 12:24:40;;;;;;;3.47;1.40;;;11.80;99.90;;;;;;4940025;29;20264;-87
2021/10/16 12:27:13;;;;;;;2.33;1.30;;;11.80;99.90;;;;;;4939125;29;20247;-88
2021/10/16 12:29:46;;;;;;;3.17;1.63;;;11.90;99.90;;;;;;4921477;29;20264;-88
2021/10/16 12:32:18;;;;;;;5.07;1.50;;;11.90;99.90;;;;;;4921670;29;20237;-88
2021/10/16 12:34:53;;;;;;;3.70;1.47;;;11.90;99.90;;;;;;4920896;29;20251;-91
2021/10/16 12:37:24;;;;;;;5.27;1.67;;;11.90;99.90;;;;;;4921511;29;20670;-88
2021/10/16 12:40:08;;;;;;;4.10;1.47;;;11.90;99.90;;;;;;4922174;29;20221;-88
2021/10/16 12:42:39;;;;;;;2.63;1.50;;;11.90;99.90;;;;;;4935813;29;20236;-89
2021/10/16 12:45:12;;;;;;;5.97;1.60;;;11.90;99.90;;;;;;4919094;29;20264;-88
2021/10/16 12:47:43;;;;;;;2.83;1.37;;;11.90;99.90;;;;;;4922060;29;20257;-88
2021/10/16 12:50:16;;;;;;;3.73;1.40;;;11.90;99.90;;;;;;4921261;29;20259;-88
2021/10/16 12:52:47;;;;;;;2.30;1.30;;;12.00;99.90;;;;;;4922115;29;20225;-88
2021/10/16 12:55:26;;;;;;;4.13;1.33;;;12.00;99.90;;;;;;4941493;29;20239;-87
2021/10/16 12:57:58;;;;;;;5.23;1.37;;;11.90;99.90;;;;;;4947600;29;20207;-88
2021/10/16 13:00:32;;;;;;;2.73;1.67;;;11.90;99.90;;;;;;4957904;29;20207;-87
2021/10/16 13:03:05;;;;;;;3.60;1.60;;;11.90;99.90;;;;;;4959078;28;20306;-88
2021/10/16 13:05:37;;;;;;;2.97;1.47;;;11.90;99.90;;;;;;4958029;28;20243;-88
2021/10/16 13:08:09;;;;;;;2.90;1.33;;;11.90;99.90;;;;;;4961616;28;20227;-87
2021/10/16 13:10:42;;;;;;;4.47;1.27;;;11.80;99.90;;;;;;4973848;28;20200;-87
2021/10/16 13:13:13;;;;;;;5.03;1.40;;;11.90;99.90;;;;;;4970819;28;20207;-88
2021/10/16 13:15:45;;;;;;;1.63;1.27;;;11.90;99.90;;;;;;4955338;28;20749;-87
2021/10/16 13:18:17;;;;;;;4.47;1.50;;;11.90;99.90;;;;;;4941965;29;20220;-87
2021/10/16 13:20:50;;;;;;;3.73;1.40;;;11.90;99.90;;;;;;4939625;29;20210;-87
2021/10/16 13:23:21;;;;;;;3.20;1.23;;;11.90;99.90;;;;;;4941740;29;20208;-87
2021/10/16 13:25:54;;;;;;;3.30;1.77;;;11.90;99.90;;;;;;4957996;28;20312;-88
2021/10/16 13:28:26;;;;;;;2.73;1.30;;;11.90;99.90;;;;;;4958263;28;20211;-87
2021/10/16 13:30:57;;;;;;;5.80;1.67;;;11.90;99.90;;;;;;4958265;28;20211;-87
2021/10/16 13:33:29;;;;;;;1.93;1.37;;;11.90;99.90;;;;;;4958686;28;20204;-88
2021/10/16 13:36:00;;;;;;;4.80;1.37;;;11.90;99.90;;;;;;4957514;28;20231;-86
2021/10/16 13:38:32;;;;;;;3.37;1.47;;;11.90;99.90;;;;;;4957218;29;20282;-88
2021/10/16 13:41:06;;;;;;;2.40;1.43;;;11.90;99.90;;;;;;4958287;28;20680;-87
2021/10/16 13:43:37;;;;;;;2.67;1.30;;;11.90;99.90;;;;;;4957162;29;20768;-88
2021/10/16 13:46:09;;;;;;;5.80;1.80;;;12.00;99.90;;;;;;4957310;28;20239;-87
2021/10/16 13:48:40;;;;;;;7.33;1.73;;;11.90;99.90;;;;;;4958095;28;20621;-88
2021/10/16 13:51:12;;;;;;;4.73;1.50;;;11.90;99.90;;;;;;4958155;28;20215;-87
2021/10/16 13:53:43;;;;;;;6.43;1.57;;;11.90;99.90;;;;;;4957946;28;20240;-88
2021/10/16 13:56:16;;;;;;;3.17;1.23;;;11.90;99.90;;;;;;4940404;29;20273;-87
2021/10/16 13:58:48;;;;;;;2.70;1.40;;;11.90;99.90;;;;;;4938637;29;20271;-87
2021/10/16 14:01:19;;;;;;;3.13;1.47;;;12.00;99.90;;;;;;4939677;29;20216;-87
2021/10/16 14:03:51;;;;;;;2.87;1.37;;;12.00;99.90;;;;;;4943176;29;20216;-88
2021/10/16 14:06:22;;;;;;;4.30;1.40;;;12.00;99.90;;;;;;4950214;29;20716;-87
2021/10/16 14:08:53;;;;;;;3.10;1.30;;;11.90;99.90;;;;;;4953234;29;20223;-87
2021/10/16 14:11:26;;;;;;;3.53;1.20;;;12.00;99.90;;;;;;4944220;29;20216;-86
2021/10/16 14:14:01;;;;;;;3.60;1.20;;;12.00;99.90;;;;;;4953890;29;20219;-87
2021/10/16 14:16:32;;;;;;;4.07;1.50;;;12.00;99.90;;;;;;4941215;29;20699;-88
2021/10/16 14:19:04;;;;;;;4.27;1.47;;;11.90;99.90;;;;;;4941977;29;20558;-87
2021/10/16 14:21:35;;;;;;;3.47;1.40;;;11.90;99.90;;;;;;4942422;29;20235;-88
2021/10/16 14:24:07;;;;;;;4.00;1.40;;;11.90;99.90;;;;;;4942456;29;20272;-87
2021/10/16 14:26:40;;;;;;;4.13;1.57;;;12.00;99.90;;;;;;4941351;29;20697;-87
2021/10/16 14:29:11;;;;;;;3.07;1.30;;;12.00;99.90;;;;;;4942389;29;20208;-88
2021/10/16 14:31:42;;;;;;;2.87;1.30;;;12.00;99.90;;;;;;4942687;29;20224;-88
2021/10/16 14:34:13;;;;;;;4.73;1.47;;;12.00;99.90;;;;;;4942928;28;20234;-88
2021/10/16 14:36:45;;;;;;;2.77;1.20;;;12.00;99.90;;;;;;4941601;29;20275;-88
2021/10/16 14:39:17;;;;;;;2.27;1.40;;;12.00;99.90;;;;;;4945167;28;20239;-88
2021/10/16 14:41:50;;;;;;;3.30;1.53;;;12.00;99.90;;;;;;4943781;29;20662;-89
2021/10/16 14:44:21;;;;;;;5.10;1.60;;;12.10;99.90;;;;;;4942062;29;20236;-88
2021/10/16 14:46:53;;;;;;;3.30;1.53;;;12.00;99.90;;;;;;4941511;29;20282;-89
2021/10/16 14:49:24;;;;;;;4.80;1.40;;;12.00;99.90;;;;;;4941222;29;20268;-88
2021/10/16 14:51:55;;;;;;;3.77;1.67;;;12.10;99.90;;;;;;4942153;29;20665;-88
2021/10/16 14:54:27;;;;;;;3.07;1.37;;;12.10;99.90;;;;;;4941767;29;20231;-87
2021/10/16 14:57:00;;;;;;;3.07;1.17;;;12.10;99.90;;;;;;4941221;28;20216;-88